Time;durP1;ratioP1;P1;durP2;ratioP2;P2;SDS_P1;SDS_P2;PMS_P1;PMS_P2;Temp;Humidity;BMP_temperature;BMP_pressure;BME280_temperature;BME280_humidity;BME280_pressure;Samples;Min_cycle;Max_cycle;Signal;HPM_P1;HPM_P2
2022/12/31 00:01:20;;;;;;;6.70;1.45;;;;;;;-140.72;100.00;53109.22;5127588;27;20019;-67
2022/12/31 00:03:45;;;;;;;1.48;0.98;;;;;;;-140.72;100.00;53119.38;5128223;27;20034;-68
2022/12/31 00:06:21;;;;;;;2.35;0.70;;;;;;;-140.72;100.00;53139.69;5129284;27;20023;-66
2022/12/31 00:08:52;;;;;;;3.53;0.75;;;;;;;-140.72;100.00;53097.06;5126451;27;20071;-70
2022/12/31 00:11:18;;;;;;;2.38;1.05;;;;;;;-140.72;100.00;53143.72;5128716;28;20011;-67
2022/12/31 00:13:45;;;;;;;1.65;1.38;;;;;;;-140.72;100.00;53159.97;5122630;28;20082;-67
2022/12/31 00:16:19;;;;;;;3.88;0.50;;;;;;;-140.72;100.00;53086.91;5124949;28;20316;-66
2022/12/31 00:18:47;;;;;;;1.20;0.63;;;;;;;-140.72;100.00;53143.72;5127184;28;20030;-71
2022/12/31 00:21:13;;;;;;;3.03;0.60;;;;;;;-140.72;100.00;53141.69;5127707;28;20137;-72
2022/12/31 00:23:39;;;;;;;0.63;0.30;;;;;;;-140.72;100.00;53168.09;5129566;28;20019;-69
2022/12/31 00:26:07;;;;;;;1.23;0.77;;;;;;;-140.72;100.00;53133.59;5128121;28;20023;-69
2022/12/31 00:28:34;;;;;;;2.28;0.63;;;;;;;-140.72;100.00;53111.25;5129585;27;20460;-70
2022/12/31 00:31:21;;;;;;;5.00;1.38;;;;;;;-140.72;100.00;53153.88;5130699;27;20026;-67
2022/12/31 00:33:46;;;;;;;4.85;0.90;;;;;;;-140.72;100.00;53151.84;5129038;27;20034;-67
2022/12/31 00:36:14;;;;;;;1.13;0.63;;;;;;;-140.72;100.00;53139.69;5126667;27;20011;-67
2022/12/31 00:38:42;;;;;;;3.40;0.47;;;;;;;-140.72;100.00;53157.94;5133158;27;20147;-68
2022/12/31 00:41:08;;;;;;;4.68;0.93;;;;;;;-140.72;100.00;53157.94;5125615;27;20023;-68
2022/12/31 00:43:34;;;;;;;1.02;0.73;;;;;;;-140.72;100.00;53145.75;5123463;27;20026;-67
2022/12/31 00:46:01;;;;;;;1.48;0.55;;;;;;;-140.72;100.00;53151.84;5121962;27;20177;-69
2022/12/31 00:48:27;;;;;;;2.70;1.02;;;;;;;-140.72;100.00;53105.19;5126274;27;20023;-71
2022/12/31 00:50:54;;;;;;;0.75;0.40;;;;;;;-140.72;100.00;53139.69;5131529;27;20031;-70
2022/12/31 00:53:20;;;;;;;2.05;0.60;;;;;;;-140.72;100.00;53125.47;5119584;27;20047;-67
2022/12/31 00:55:45;;;;;;;3.65;0.73;;;;;;;-140.72;100.00;53129.53;5131060;27;20038;-66
2022/12/31 00:58:10;;;;;;;0.55;0.38;;;;;;;-140.72;100.00;53147.78;5124936;27;20019;-67
2022/12/31 01:00:36;;;;;;;1.95;0.60;;;;;;;-140.72;100.00;53151.84;5130360;27;20157;-69
2022/12/31 01:03:02;;;;;;;1.63;0.80;;;;;;;-140.72;100.00;53139.69;5125837;27;20031;-66
2022/12/31 01:05:30;;;;;;;1.50;0.45;;;;;;;-140.72;100.00;53129.53;5132876;27;20382;-67
2022/12/31 01:07:55;;;;;;;4.72;0.98;;;;;;;-140.72;100.00;53166.06;5121758;27;20026;-67
2022/12/31 01:13:07;;;;;;;1.50;0.70;;;;;;;-140.72;100.00;53141.69;5065905;27;20046;-67
2022/12/31 01:15:37;;;;;;;0.82;0.43;;;;;;;-140.72;100.00;53166.06;5132373;27;20024;-68
2022/12/31 01:18:04;;;;;;;0.60;0.40;;;;;;;-140.72;100.00;53153.88;5130321;27;20029;-68
2022/12/31 01:20:30;;;;;;;6.93;0.65;;;;;;;-140.72;100.00;53153.88;5125111;27;20023;-67
2022/12/31 01:22:55;;;;;;;3.22;0.40;;;;;;;-140.72;100.00;53145.75;5125445;27;20359;-67
2022/12/31 01:25:21;;;;;;;7.25;0.70;;;;;;;-140.72;100.00;53143.72;5127907;27;20034;-70
2022/12/31 01:27:46;;;;;;;4.13;0.77;;;;;;;-140.72;100.00;53143.72;5127183;27;20103;-67
2022/12/31 01:30:11;;;;;;;1.90;1.02;;;;;;;-140.72;100.00;53113.28;5128368;27;20038;-70
2022/12/31 01:32:38;;;;;;;1.02;0.50;;;;;;;-140.72;100.00;53151.84;5128616;27;20023;-67
2022/12/31 01:35:04;;;;;;;1.95;0.85;;;;;;;-140.72;100.00;53147.78;5130232;27;20054;-67
2022/12/31 01:37:29;;;;;;;1.55;0.32;;;;;;;-140.72;100.00;53135.63;5130950;27;20054;-69
2022/12/31 01:39:54;;;;;;;0.35;0.30;;;;;;;-140.72;100.00;53162.00;5130846;27;20015;-70
2022/12/31 01:42:20;;;;;;;1.13;0.40;;;;;;;-140.72;100.00;53147.78;5127093;27;20443;-67
2022/12/31 01:45:09;;;;;;;2.42;0.38;;;;;;;-140.72;100.00;53176.22;5126310;27;20081;-70
2022/12/31 01:47:43;;;;;;;2.67;0.60;;;;;;;-140.72;100.00;53145.75;5127479;27;20026;-68
2022/12/31 01:50:17;;;;;;;1.40;0.50;;;;;;;-140.72;100.00;53166.06;5126437;27;20063;-66
2022/12/31 01:52:57;;;;;;;2.35;0.43;;;;;;;-140.72;100.00;53194.47;5130152;27;20273;-67
2022/12/31 01:55:38;;;;;;;0.75;0.52;;;;;;;-140.72;100.00;53194.47;5111231;27;20023;-66
2022/12/31 01:58:12;;;;;;;2.53;0.80;;;;;;;-140.72;100.00;53157.94;5129331;27;20019;-67
2022/12/31 02:00:38;;;;;;;8.05;0.75;;;;;;;-140.72;100.00;53162.00;5127069;27;20446;-66
2022/12/31 02:03:07;;;;;;;1.05;0.35;;;;;;;-140.72;100.00;53125.47;5131698;27;20102;-67
2022/12/31 02:05:48;;;;;;;3.03;0.57;;;;;;;-140.72;100.00;53151.84;5125865;27;20071;-70
2022/12/31 02:08:14;;;;;;;0.73;0.20;;;;;;;-140.72;100.00;53125.47;5127953;27;20047;-69
2022/12/31 02:10:40;;;;;;;4.25;0.60;;;;;;;-140.72;100.00;53145.75;5131754;27;20015;-66
2022/12/31 02:13:06;;;;;;;2.05;0.95;;;;;;;-140.72;100.00;53145.75;5124577;27;20023;-70
2022/12/31 02:16:01;;;;;;;2.78;0.90;;;;;;;-140.72;100.00;53174.19;5128644;27;20035;-67
2022/12/31 02:18:40;;;;;;;4.28;0.63;;;;;;;-140.72;100.00;53162.00;5128187;27;20374;-67
2022/12/31 02:21:39;;;;;;;4.93;0.95;;;;;;;-140.72;100.00;53121.41;5129540;27;20390;-67
2022/12/31 02:24:44;;;;;;;0.60;0.40;;;;;;;-140.72;100.00;53121.41;5128159;27;20073;-67
2022/12/31 02:27:27;;;;;;;3.72;0.75;;;;;;;-140.72;100.00;53162.00;5127713;27;20469;-67
2022/12/31 02:29:59;;;;;;;1.95;0.75;;;;;;;-140.72;100.00;53184.31;5124916;27;20039;-72
2022/12/31 02:32:37;;;;;;;1.60;0.77;;;;;;;-140.72;100.00;53155.91;5128146;27;20518;-70
2022/12/31 02:35:15;;;;;;;2.03;0.52;;;;;;;-140.72;100.00;53159.97;5125655;27;20031;-72
2022/12/31 02:37:46;;;;;;;0.90;0.50;;;;;;;-140.72;100.00;53155.91;5127106;27;20019;-67
2022/12/31 02:40:16;;;;;;;3.70;1.02;;;;;;;-140.72;100.00;53151.84;5129412;27;20027;-69
2022/12/31 02:42:41;;;;;;;;;;;;;;;-140.72;100.00;53162.00;5129385;27;20023;-69
2022/12/31 02:45:12;;;;;;;6.28;1.10;;;;;;;-140.72;100.00;53137.66;5128259;27;19907;-68
2022/12/31 02:47:49;;;;;;;2.67;0.60;;;;;;;-140.72;100.00;53170.13;5124619;27;20019;-68
2022/12/31 02:50:36;;;;;;;2.90;0.55;;;;;;;-140.72;100.00;53204.63;5130458;27;20522;-66
2022/12/31 02:53:07;;;;;;;1.13;0.47;;;;;;;-140.72;100.00;53170.13;5127800;27;20027;-66
2022/12/31 02:55:49;;;;;;;0.95;0.50;;;;;;;-140.72;100.00;53139.69;5126739;27;20018;-67
2022/12/31 03:02:12;;;;;;;3.33;0.75;;;;;;;-140.72;100.00;53157.94;5126785;27;20039;-66
2022/12/31 03:04:30;;;;;;;2.65;1.02;;;;;;;-140.72;100.00;53139.69;5128042;27;20427;-66
2022/12/31 03:06:36;;;;;;;10.15;1.08;;;;;;;-140.72;100.00;53141.69;5127691;27;20015;-66
2022/12/31 03:09:13;;;;;;;1.63;0.50;;;;;;;-140.72;100.00;53168.09;5128399;27;20260;-66
2022/12/31 03:14:23;;;;;;;1.20;0.40;;;;;;;-140.72;100.00;53190.41;5125048;27;20164;-66
2022/12/31 03:16:49;;;;;;;0.95;0.35;;;;;;;-140.72;100.00;53204.63;5129142;27;20106;-65
2022/12/31 03:27:26;;;;;;;2.05;0.40;;;;;;;-140.72;100.00;53147.78;5126500;27;20045;-66
2022/12/31 03:29:51;;;;;;;4.93;0.80;;;;;;;-140.72;100.00;53145.75;5107717;27;20030;-66
2022/12/31 03:32:17;;;;;;;5.32;0.68;;;;;;;-140.72;100.00;53194.47;5126358;27;20047;-66
2022/12/31 03:34:45;;;;;;;3.10;0.85;;;;;;;-140.72;100.00;53198.53;5128145;27;20123;-66
2022/12/31 03:37:10;;;;;;;0.52;0.30;;;;;;;-140.72;100.00;53162.00;5128132;27;20023;-67
2022/12/31 03:39:36;;;;;;;1.35;0.60;;;;;;;-140.72;100.00;53162.00;5126753;27;20095;-68
2022/12/31 03:42:01;;;;;;;4.03;1.05;;;;;;;-140.72;100.00;53186.34;5128264;27;20054;-67
2022/12/31 03:44:27;;;;;;;0.52;0.47;;;;;;;-140.72;100.00;53176.22;5125590;27;20054;-66
2022/12/31 03:46:52;;;;;;;5.95;1.15;;;;;;;-140.72;100.00;53224.91;5125934;27;20412;-68
2022/12/31 03:49:17;;;;;;;1.38;0.47;;;;;;;-140.72;100.00;53157.94;5127153;27;20031;-69
2022/12/31 03:51:43;;;;;;;1.52;0.30;;;;;;;-140.72;100.00;53172.16;5127035;27;20042;-66
2022/12/31 03:54:08;;;;;;;1.48;0.77;;;;;;;-140.72;100.00;53180.25;5126889;27;20122;-66
2022/12/31 03:56:33;;;;;;;2.13;0.47;;;;;;;-140.72;100.00;53198.53;5125971;27;20067;-69
2022/12/31 03:58:59;;;;;;;1.25;0.50;;;;;;;-140.72;100.00;53170.13;5127708;27;20019;-67
2022/12/31 04:01:27;;;;;;;3.30;0.80;;;;;;;-140.72;100.00;53194.47;5127543;27;20026;-67
2022/12/31 04:03:52;;;;;;;0.20;0.13;;;;;;;-140.72;100.00;53202.59;5126392;27;20030;-66
2022/12/31 04:06:18;;;;;;;2.17;0.40;;;;;;;-140.72;100.00;53164.03;5123856;27;20451;-66
2022/12/31 04:08:43;;;;;;;0.50;0.30;;;;;;;-140.72;100.00;53180.25;5127172;27;20027;-66
2022/12/31 04:11:09;;;;;;;6.18;0.82;;;;;;;-140.72;100.00;53147.78;5123983;28;20113;-66
2022/12/31 04:13:34;;;;;;;0.60;0.30;;;;;;;-140.72;100.00;53164.03;5121926;28;20068;-67
2022/12/31 04:15:59;;;;;;;0.50;0.38;;;;;;;-140.72;100.00;53259.41;5122978;28;20450;-70
2022/12/31 04:18:25;;;;;;;1.42;0.38;;;;;;;-140.72;100.00;53170.13;5122575;28;20028;-67
2022/12/31 04:20:50;;;;;;;0.82;0.40;;;;;;;-140.72;100.00;53174.19;5127537;28;20092;-68
2022/12/31 04:23:15;;;;;;;2.28;0.50;;;;;;;-140.72;100.00;53164.03;5128751;28;20094;-67
2022/12/31 04:25:41;;;;;;;2.78;0.75;;;;;;;-140.72;100.00;53186.34;5125225;28;20029;-70
2022/12/31 04:28:06;;;;;;;1.15;0.35;;;;;;;-140.72;100.00;53186.34;5126752;28;20653;-66
2022/12/31 04:30:32;;;;;;;1.35;0.63;;;;;;;-140.72;100.00;53162.00;5122947;28;20072;-68
2022/12/31 04:32:57;;;;;;;0.32;0.22;;;;;;;-140.72;100.00;53164.03;5127515;28;20056;-70
2022/12/31 04:35:22;;;;;;;1.00;0.52;;;;;;;-140.72;100.00;53153.88;5126647;28;20025;-67
2022/12/31 04:37:48;;;;;;;1.48;0.80;;;;;;;-140.72;100.00;53196.50;5128362;28;20027;-67
2022/12/31 04:40:13;;;;;;;1.42;0.65;;;;;;;-140.72;100.00;53202.59;5128163;28;20360;-66
2022/12/31 04:42:38;;;;;;;1.30;0.82;;;;;;;-140.72;100.00;53170.13;5125727;28;20051;-66
2022/12/31 04:45:04;;;;;;;2.10;0.98;;;;;;;-140.72;100.00;53164.03;5126266;28;20023;-67
2022/12/31 04:47:30;;;;;;;8.10;1.52;;;;;;;-140.72;100.00;53186.34;5124943;28;20038;-67
2022/12/31 04:49:55;;;;;;;3.97;0.93;;;;;;;-140.72;100.00;53168.09;5126506;27;20442;-68
2022/12/31 04:52:21;;;;;;;1.55;0.98;;;;;;;-140.72;100.00;53145.75;5128998;28;20035;-67
2022/12/31 04:54:46;;;;;;;1.92;1.10;;;;;;;-140.72;100.00;53145.75;5127880;28;20020;-69
2022/12/31 04:57:12;;;;;;;1.83;1.05;;;;;;;-140.72;100.00;53176.22;5124196;28;20035;-69
2022/12/31 04:59:37;;;;;;;1.92;1.02;;;;;;;-140.72;100.00;53206.66;5127637;28;20019;-67
2022/12/31 05:02:02;;;;;;;1.98;0.80;;;;;;;-140.72;100.00;53159.97;5124815;28;20352;-68
2022/12/31 05:04:28;;;;;;;6.25;1.02;;;;;;;-140.72;100.00;53210.72;5128312;28;20084;-67
2022/12/31 05:06:54;;;;;;;3.38;0.98;;;;;;;-140.72;100.00;53153.88;5118211;28;20046;-67
2022/12/31 05:09:20;;;;;;;1.13;0.70;;;;;;;-140.72;100.00;53202.59;5122906;28;20015;-70
2022/12/31 05:11:48;;;;;;;2.53;1.00;;;;;;;-140.72;100.00;53145.75;5117776;28;20031;-67
2022/12/31 05:14:14;;;;;;;2.53;0.90;;;;;;;-140.72;100.00;53155.91;5116749;27;20027;-67
2022/12/31 05:16:39;;;;;;;0.77;0.47;;;;;;;-140.72;100.00;53196.50;5121214;27;20014;-67
2022/12/31 05:19:08;;;;;;;0.95;0.55;;;;;;;-140.72;100.00;53170.13;5121624;27;20349;-67
2022/12/31 05:21:34;;;;;;;2.30;0.60;;;;;;;-140.72;100.00;53190.41;5126131;27;20023;-67
2022/12/31 05:23:59;;;;;;;0.32;0.30;;;;;;;-140.72;100.00;53182.28;5126280;27;20019;-67
2022/12/31 05:26:24;;;;;;;0.68;0.50;;;;;;;-140.72;100.00;53153.88;5122641;27;20446;-67
2022/12/31 05:28:50;;;;;;;0.77;0.45;;;;;;;-140.72;100.00;53162.00;5128059;27;20019;-67
2022/12/31 05:31:15;;;;;;;0.80;0.32;;;;;;;-140.72;100.00;53172.16;5118346;27;20023;-67
2022/12/31 05:33:41;;;;;;;0.45;0.40;;;;;;;-140.72;100.00;53131.56;5131051;27;20011;-67
2022/12/31 05:36:06;;;;;;;0.65;0.30;;;;;;;-140.72;100.00;53182.28;5130820;27;20019;-68
2022/12/31 05:38:32;;;;;;;0.40;0.20;;;;;;;-140.72;100.00;53115.31;5130241;27;20374;-67
2022/12/31 05:41:02;;;;;;;0.30;0.20;;;;;;;-140.72;100.00;53145.75;5122259;27;20656;-68
2022/12/31 05:43:28;;;;;;;0.32;0.20;;;;;;;-140.72;100.00;53166.06;5119143;27;20055;-72
2022/12/31 05:45:54;;;;;;;0.43;0.20;;;;;;;-140.72;100.00;53168.09;5131527;27;20054;-67
2022/12/31 05:48:19;;;;;;;0.20;0.20;;;;;;;-140.72;100.00;53168.09;5122644;27;20078;-70
2022/12/31 05:50:44;;;;;;;0.28;0.20;;;;;;;-140.72;100.00;53172.16;5116041;27;20035;-69
2022/12/31 05:53:10;;;;;;;0.25;0.17;;;;;;;-140.72;100.00;53129.53;5115312;27;20031;-67
2022/12/31 05:55:35;;;;;;;0.43;0.20;;;;;;;-140.72;100.00;53168.09;5117150;27;20019;-67
2022/12/31 05:58:01;;;;;;;0.30;0.15;;;;;;;-140.72;100.00;53129.53;5112089;27;20020;-68
2022/12/31 06:00:26;;;;;;;0.50;0.40;;;;;;;-140.72;100.00;53145.75;5119259;27;20019;-67
2022/12/31 06:02:51;;;;;;;0.77;0.32;;;;;;;-140.72;100.00;53145.75;5131937;27;20027;-68
2022/12/31 06:05:17;;;;;;;0.52;0.30;;;;;;;-140.72;100.00;53149.81;5120339;27;20039;-70
2022/12/31 06:07:42;;;;;;;0.60;0.32;;;;;;;-140.72;100.00;53182.28;5127622;27;20019;-70
2022/12/31 06:10:08;;;;;;;1.00;0.60;;;;;;;-140.72;100.00;53135.63;5131648;27;20070;-69
2022/12/31 06:12:34;;;;;;;1.77;1.00;;;;;;;-140.72;100.00;53123.44;5128786;27;20355;-71
2022/12/31 06:14:59;;;;;;;0.85;0.70;;;;;;;-140.72;100.00;53166.06;5126833;27;20055;-69
2022/12/31 06:17:25;;;;;;;2.20;0.98;;;;;;;-140.72;100.00;53111.25;5128722;27;20171;-68
2022/12/31 06:19:50;;;;;;;1.63;1.17;;;;;;;-140.72;100.00;53149.81;5126781;27;20034;-68
2022/12/31 06:22:16;;;;;;;1.75;1.02;;;;;;;-140.72;100.00;53149.81;5129490;27;20042;-71
2022/12/31 06:24:41;;;;;;;2.47;1.42;;;;;;;-140.72;100.00;53097.06;5126069;27;20027;-67
2022/12/31 06:27:06;;;;;;;2.58;1.42;;;;;;;-140.72;100.00;53133.59;5128243;27;20021;-70
2022/12/31 06:29:32;;;;;;;1.77;1.05;;;;;;;-140.72;100.00;53153.88;5116062;27;20028;-71
2022/12/31 06:31:57;;;;;;;3.45;1.45;;;;;;;-140.72;100.00;53141.69;5121021;27;20041;-69
2022/12/31 06:34:23;;;;;;;3.10;1.92;;;;;;;-140.72;100.00;53127.50;5129122;27;20023;-67
2022/12/31 06:36:48;;;;;;;3.55;1.98;;;;;;;-140.72;100.00;53117.34;5129510;27;20015;-67
2022/12/31 06:39:13;;;;;;;3.92;2.13;;;;;;;-140.72;100.00;53139.69;5130371;27;20033;-68
2022/12/31 06:41:39;;;;;;;2.25;1.13;;;;;;;-140.72;100.00;53117.34;5125418;27;20047;-70
2022/12/31 06:44:04;;;;;;;1.45;0.80;;;;;;;-140.72;100.00;53137.66;5116384;27;20058;-69
2022/12/31 06:46:30;;;;;;;2.17;1.20;;;;;;;-140.72;100.00;53117.34;5114383;27;20077;-70
2022/12/31 06:48:55;;;;;;;1.02;0.40;;;;;;;-140.72;100.00;53162.00;5125293;27;20118;-70
2022/12/31 06:51:21;;;;;;;3.13;0.73;;;;;;;-140.72;100.00;53149.81;5128340;27;20114;-67
2022/12/31 06:53:48;;;;;;;0.55;0.40;;;;;;;-140.72;100.00;53121.41;5128510;27;20434;-67
2022/12/31 06:56:18;;;;;;;0.40;0.20;;;;;;;-140.72;100.00;53125.47;5121096;27;20023;-67
2022/12/31 06:58:44;;;;;;;0.60;0.40;;;;;;;-140.72;100.00;53129.53;5120439;27;20479;-67
2022/12/31 07:01:19;;;;;;;0.30;0.20;;;;;;;-140.72;100.00;53145.75;5118831;27;20015;-67
2022/12/31 07:04:09;;;;;;;0.80;0.22;;;;;;;-140.72;100.00;53119.38;5129360;27;20035;-69
2022/12/31 07:06:43;;;;;;;0.20;0.20;;;;;;;-140.72;100.00;53113.28;5117817;27;20031;-67
2022/12/31 07:09:45;;;;;;;0.30;0.20;;;;;;;-140.72;100.00;53084.88;5124992;27;20025;-67
2022/12/31 07:12:19;;;;;;;0.57;0.10;;;;;;;-140.72;100.00;53090.97;5117136;27;20398;-67
2022/12/31 07:14:50;;;;;;;1.88;0.40;;;;;;;-140.72;100.00;53109.22;5130002;27;20357;-69
2022/12/31 07:17:37;;;;;;;0.15;0.13;;;;;;;-140.72;100.00;53103.16;5131081;27;20015;-67
2022/12/31 07:20:15;;;;;;;1.67;0.57;;;;;;;-140.72;100.00;53093.00;5126770;27;20076;-67
2022/12/31 07:22:42;;;;;;;0.85;0.30;;;;;;;-140.72;100.00;53117.34;5123162;27;20023;-70
2022/12/31 07:25:12;;;;;;;2.53;0.30;;;;;;;-140.72;100.00;53137.66;5123279;27;20110;-67
2022/12/31 07:27:56;;;;;;;0.25;0.15;;;;;;;-140.72;100.00;53155.91;5120795;27;20039;-67
2022/12/31 07:30:29;;;;;;;1.10;0.40;;;;;;;-140.72;100.00;53109.22;5125335;27;20031;-66
2022/12/31 07:33:06;;;;;;;0.30;0.20;;;;;;;-140.72;100.00;53101.13;5126302;27;20106;-67
2022/12/31 07:36:06;;;;;;;0.50;0.40;;;;;;;-140.72;100.00;53133.59;5126304;27;20344;-68
2022/12/31 07:38:31;;;;;;;0.52;0.40;;;;;;;-140.72;100.00;53129.53;5125585;27;20023;-67
2022/12/31 07:41:13;;;;;;;0.45;0.40;;;;;;;-140.72;100.00;53086.91;5124221;27;20034;-67
2022/12/31 07:43:47;;;;;;;1.05;0.73;;;;;;;-140.72;100.00;53090.97;5117233;27;20095;-67
2022/12/31 07:46:41;;;;;;;2.13;0.38;;;;;;;-140.72;100.00;53147.78;5124924;27;20043;-68
2022/12/31 07:49:11;;;;;;;1.10;0.50;;;;;;;-140.72;100.00;53088.94;5126503;27;20026;-66
2022/12/31 07:51:37;;;;;;;0.47;0.30;;;;;;;-140.72;100.00;53135.63;5124906;27;20039;-67
2022/12/31 07:54:04;;;;;;;0.90;0.38;;;;;;;-140.72;100.00;53103.16;5125998;27;20023;-67
2022/12/31 07:56:30;;;;;;;0.22;0.17;;;;;;;-140.72;100.00;53117.34;5125204;27;20023;-67
2022/12/31 07:59:02;;;;;;;1.63;0.68;;;;;;;-140.72;100.00;53105.19;5122537;27;20052;-70
2022/12/31 08:02:12;;;;;;;1.85;0.38;;;;;;;-140.72;100.00;53088.94;5124768;27;20031;-67
2022/12/31 08:05:25;;;;;;;0.50;0.30;;;;;;;-140.72;100.00;53119.38;5115437;27;20031;-67
2022/12/31 08:08:15;;;;;;;0.45;0.25;;;;;;;-140.72;100.00;53093.00;5082071;27;20027;-67
2022/12/31 08:10:49;;;;;;;;;;;;;;;-140.72;100.00;53113.28;5125119;27;20035;-69
2022/12/31 08:13:16;;;;;;;0.65;0.40;;;;;;;-140.72;100.00;53145.75;5125177;28;19960;-68
2022/12/31 08:15:41;;;;;;;0.63;0.30;;;;;;;-140.72;100.00;53082.84;5126930;28;20019;-67
2022/12/31 08:18:07;;;;;;;2.40;0.43;;;;;;;-140.72;100.00;53109.22;5125400;28;20027;-67
2022/12/31 08:20:46;;;;;;;2.47;0.50;;;;;;;-140.72;100.00;53141.69;5125960;28;20042;-69
2022/12/31 08:23:31;;;;;;;0.40;0.30;;;;;;;-140.72;100.00;53107.19;5128013;28;20022;-70
2022/12/31 08:26:26;;;;;;;0.85;0.30;;;;;;;-140.72;100.00;53072.69;5127829;28;20026;-67
2022/12/31 08:29:04;;;;;;;2.17;0.30;;;;;;;-140.72;100.00;53162.00;5087811;28;20035;-67
2022/12/31 08:31:42;;;;;;;1.02;0.68;;;;;;;-140.72;100.00;53135.63;5123983;28;20027;-69
2022/12/31 08:34:22;;;;;;;3.25;0.40;;;;;;;-140.72;100.00;53151.84;5126507;28;20027;-68
2022/12/31 08:36:56;;;;;;;3.30;0.68;;;;;;;-140.72;100.00;53139.69;5128431;28;20042;-70
2022/12/31 08:39:24;;;;;;;1.05;0.40;;;;;;;-140.72;100.00;53141.69;5126435;28;20046;-68
2022/12/31 08:41:59;;;;;;;5.75;1.10;;;;;;;-140.72;100.00;53115.31;5127840;28;20031;-67
2022/12/31 08:44:41;;;;;;;0.90;0.45;;;;;;;-140.72;100.00;53093.00;5123162;28;20106;-68
2022/12/31 08:47:32;;;;;;;3.90;1.23;;;;;;;-140.72;100.00;53105.19;5127358;28;20019;-70
2022/12/31 08:50:04;;;;;;;2.83;0.70;;;;;;;-140.72;100.00;53066.63;5125824;27;20023;-67
2022/12/31 08:52:30;;;;;;;1.33;0.70;;;;;;;-140.72;100.00;53133.59;5133244;27;20039;-67
2022/12/31 08:54:55;;;;;;;3.55;1.25;;;;;;;-140.72;100.00;53084.88;5131071;27;20026;-68
2022/12/31 08:57:40;;;;;;;4.20;0.68;;;;;;;-140.72;100.00;53080.81;5129777;27;20027;-67
2022/12/31 09:00:15;;;;;;;2.40;0.60;;;;;;;-140.72;100.00;53088.94;5128577;27;20456;-67
2022/12/31 09:03:00;;;;;;;5.57;0.80;;;;;;;-140.72;100.00;53080.81;5128556;27;20379;-69
2022/12/31 09:05:35;;;;;;;4.90;0.65;;;;;;;-140.72;100.00;53064.59;5128874;27;20098;-67
2022/12/31 09:08:21;;;;;;;1.38;0.35;;;;;;;-140.72;100.00;53080.81;5127259;27;20015;-67
2022/12/31 09:11:13;;;;;;;2.45;0.93;;;;;;;-140.72;100.00;53090.97;5125225;27;20083;-68
2022/12/31 09:14:16;;;;;;;3.13;0.70;;;;;;;-140.72;100.00;53093.00;5085133;27;20472;-67
2022/12/31 09:17:10;;;;;;;3.13;0.80;;;;;;;-140.72;100.00;53115.31;5130340;27;20023;-68
2022/12/31 09:19:35;;;;;;;2.47;0.95;;;;;;;-140.72;100.00;53095.03;5125371;27;20027;-70
2022/12/31 09:22:01;;;;;;;4.35;1.63;;;;;;;-140.72;100.00;53058.50;5128909;27;20081;-70
2022/12/31 09:24:26;;;;;;;9.00;0.82;;;;;;;-140.72;100.00;53133.59;5130642;27;20382;-66
2022/12/31 09:27:17;;;;;;;1.13;0.43;;;;;;;-140.72;100.00;53115.31;5128002;27;20027;-68
2022/12/31 09:29:52;;;;;;;2.17;0.50;;;;;;;-140.72;100.00;53068.66;5127341;27;20023;-67
2022/12/31 09:32:29;;;;;;;3.38;0.57;;;;;;;-140.72;100.00;53066.63;5128692;27;20037;-68
2022/12/31 09:35:13;;;;;;;0.75;0.50;;;;;;;-140.72;100.00;53093.00;5125611;27;20061;-67
2022/12/31 09:37:54;;;;;;;5.82;0.65;;;;;;;-140.72;100.00;53117.34;5124242;27;20031;-66
2022/12/31 09:40:44;;;;;;;2.05;0.40;;;;;;;-140.72;100.00;53095.03;5128171;27;20019;-71
2022/12/31 09:43:27;;;;;;;0.73;0.40;;;;;;;-140.72;100.00;53076.75;5125966;27;20110;-67
2022/12/31 09:46:10;;;;;;;4.22;0.63;;;;;;;-140.72;100.00;53068.66;5128710;27;20035;-67
2022/12/31 09:49:12;;;;;;;0.73;0.60;;;;;;;-140.72;100.00;53090.97;5128679;27;20030;-69
2022/12/31 09:52:09;;;;;;;2.30;0.70;;;;;;;-140.72;100.00;53101.13;5125392;27;20035;-69
2022/12/31 09:54:54;;;;;;;5.05;0.80;;;;;;;-140.72;100.00;53056.47;5080570;27;20039;-69
2022/12/31 09:57:22;;;;;;;2.47;0.93;;;;;;;-140.72;100.00;53097.06;5122716;27;20046;-68
2022/12/31 09:59:58;;;;;;;0.63;0.40;;;;;;;-140.72;100.00;53119.38;5129915;27;20019;-68
2022/12/31 10:02:51;;;;;;;1.10;0.60;;;;;;;-140.72;100.00;53074.72;5125853;27;20420;-68
2022/12/31 10:05:33;;;;;;;1.25;0.43;;;;;;;-140.72;100.00;53074.72;5127593;27;20019;-67
2022/12/31 10:08:02;;;;;;;0.57;0.50;;;;;;;-140.72;100.00;53070.69;5127046;27;20585;-68
2022/12/31 10:10:50;;;;;;;1.80;0.70;;;;;;;-140.72;100.00;53058.50;5125337;27;20277;-66
2022/12/31 10:13:46;;;;;;;1.98;0.50;;;;;;;-140.72;100.00;53026.03;5127751;27;20110;-69
2022/12/31 10:16:19;;;;;;;0.90;0.50;;;;;;;-140.72;100.00;53070.69;5129286;27;20031;-68
2022/12/31 10:19:03;;;;;;;1.00;0.40;;;;;;;-140.72;100.00;53056.47;5127379;27;20045;-73
2022/12/31 10:22:01;;;;;;;3.55;0.98;;;;;;;-140.72;100.00;53068.66;5127601;27;20043;-71
2022/12/31 10:24:38;;;;;;;1.40;0.65;;;;;;;-140.72;100.00;53101.13;5125947;27;20023;-68
2022/12/31 10:27:16;;;;;;;1.35;0.50;;;;;;;-140.72;100.00;53086.91;5128337;27;20034;-68
2022/12/31 10:29:46;;;;;;;1.90;0.68;;;;;;;-140.72;100.00;53084.88;5126699;27;20431;-68
2022/12/31 10:32:19;;;;;;;6.85;0.98;;;;;;;-140.72;100.00;53056.47;5128953;27;20053;-68
2022/12/31 10:35:19;;;;;;;2.22;0.88;;;;;;;-140.72;100.00;53068.66;5124423;27;20479;-68
2022/12/31 10:37:54;;;;;;;2.15;0.70;;;;;;;-140.72;100.00;53040.22;5125972;27;20438;-67
2022/12/31 10:40:41;;;;;;;2.83;1.52;;;;;;;-140.72;100.00;53078.78;5126627;27;20030;-67
2022/12/31 10:43:21;;;;;;;4.70;0.88;;;;;;;-140.72;100.00;53090.97;5128276;27;20027;-67
2022/12/31 10:46:04;;;;;;;1.70;0.77;;;;;;;-140.72;100.00;53088.94;5127503;27;20072;-67
2022/12/31 10:48:48;;;;;;;0.85;0.57;;;;;;;-140.72;100.00;53093.00;5128309;27;20052;-67
2022/12/31 10:51:17;;;;;;;4.53;1.17;;;;;;;-140.72;100.00;53097.06;5127556;27;20378;-68
2022/12/31 10:54:01;;;;;;;2.70;0.52;;;;;;;-140.72;100.00;53088.94;5126659;27;20440;-69
2022/12/31 10:56:42;;;;;;;1.40;0.82;;;;;;;-140.72;100.00;53093.00;5128336;27;20482;-68
2022/12/31 10:59:10;;;;;;;1.95;0.77;;;;;;;-140.72;100.00;53072.69;5117465;27;20033;-69
2022/12/31 11:01:41;;;;;;;8.30;1.15;;;;;;;-140.72;100.00;53109.22;5128402;27;20382;-69
2022/12/31 11:04:45;;;;;;;2.55;0.68;;;;;;;-140.72;100.00;53072.69;5128523;27;20019;-68
2022/12/31 11:07:29;;;;;;;0.57;0.43;;;;;;;-140.72;100.00;53066.63;5115170;27;20082;-69
2022/12/31 11:09:57;;;;;;;1.45;0.57;;;;;;;-140.72;100.00;53044.28;5115414;27;20032;-68
2022/12/31 11:12:56;;;;;;;1.67;1.00;;;;;;;-140.72;100.00;53095.03;5128411;27;20034;-72
2022/12/31 11:15:21;;;;;;;2.25;1.15;;;;;;;-140.72;100.00;53093.00;5115195;27;20127;-68
2022/12/31 11:18:22;;;;;;;1.85;1.00;;;;;;;-140.72;100.00;53072.69;5119400;27;20106;-71
2022/12/31 11:21:12;;;;;;;1.13;0.70;;;;;;;-140.72;100.00;53064.59;5121966;27;20023;-67
2022/12/31 11:24:06;;;;;;;2.85;1.13;;;;;;;-140.72;100.00;53026.03;5127481;27;20027;-71
2022/12/31 11:26:51;;;;;;;2.88;0.60;;;;;;;-140.72;100.00;52995.59;5080864;27;20035;-68
2022/12/31 11:29:55;;;;;;;2.95;1.52;;;;;;;-140.72;100.00;53044.28;5123898;27;20023;-68
2022/12/31 11:32:44;;;;;;;1.95;1.10;;;;;;;-140.72;100.00;53109.22;5126208;27;20455;-67
2022/12/31 11:35:20;;;;;;;0.77;0.47;;;;;;;-140.72;100.00;53032.13;5126264;27;20034;-70
2022/12/31 11:38:24;;;;;;;1.38;0.65;;;;;;;-140.72;100.00;53074.72;5127306;27;20042;-67
2022/12/31 11:41:10;;;;;;;2.22;1.08;;;;;;;-140.72;100.00;53058.50;5103986;27;20039;-69
2022/12/31 11:43:49;;;;;;;3.90;1.85;;;;;;;-140.72;100.00;53048.34;5125652;27;20510;-68
2022/12/31 11:46:15;;;;;;;2.97;0.70;;;;;;;-140.72;100.00;53097.06;5127230;27;20367;-67
2022/12/31 11:48:54;;;;;;;3.85;1.15;;;;;;;-140.72;100.00;53080.81;5124754;27;20057;-67
2022/12/31 11:51:25;;;;;;;6.05;1.45;;;;;;;-140.72;100.00;53052.41;5110500;27;20152;-68
2022/12/31 11:54:12;;;;;;;2.55;0.98;;;;;;;-140.72;100.00;53072.69;5114356;27;20073;-71